Time,TemperatureF,DewpointF,PressureIn,WindDirection,WindDirectionDegrees,WindSpeedMPH,WindSpeedGustMPH,Humidity,HourlyPrecipIn,Conditions,Clouds,dailyrainin,SoftwareType,DateUTC
2013-09-21 00:01:00,70.0,68.8,29.97,SSE,158,0.0,0.0,96,0.00,,---,0.00,VWS V14.01,2013-09-21 05:01:00,
2013-09-21 00:06:00,70.2,69.0,29.97,ESE,112,0.0,0.0,96,0.00,,---,0.00,VWS V14.01,2013-09-21 05:06:00,
2013-09-21 00:11:00,70.2,69.0,29.97,NNE,22,3.1,3.1,96,0.00,,---,0.00,VWS V14.01,2013-09-21 05:11:00,
2013-09-21 00:16:00,69.8,68.6,29.97,NE,45,5.4,6.0,96,0.05,,---,0.05,VWS V14.01,2013-09-21 05:16:00,
2013-09-21 00:21:00,69.3,68.1,29.97,ESE,112,9.4,10.3,96,0.05,,---,0.05,VWS V14.01,2013-09-21 05:21:00,
2013-09-21 00:26:00,69.1,67.6,29.97,East,90,3.4,3.4,95,0.05,,---,0.05,VWS V14.01,2013-09-21 05:26:00,
2013-09-21 00:31:00,68.7,67.2,29.97,ENE,68,5.8,5.8,95,0.05,,---,0.05,VWS V14.01,2013-09-21 05:31:00,
2013-09-21 00:36:00,68.5,66.8,29.97,ESE,112,5.4,5.4,94,0.09,,---,0.09,VWS V14.01,2013-09-21 05:36:00,
2013-09-21 00:41:00,68.4,66.6,29.97,ENE,68,4.9,6.3,94,0.09,,---,0.09,VWS V14.01,2013-09-21 05:41:00,
2013-09-21 00:46:00,68.0,66.2,30.00,ESE,112,3.4,3.4,94,0.09,,---,0.09,VWS V14.01,2013-09-21 05:46:00,
2013-09-21 00:51:00,68.0,66.2,30.00,ENE,68,3.8,5.8,94,0.09,,---,0.09,VWS V14.01,2013-09-21 05:51:00,
2013-09-21 00:56:00,67.8,66.0,29.97,ESE,112,3.8,4.3,94,0.09,,---,0.09,VWS V14.01,2013-09-21 05:56:00,
2013-09-21 01:01:00,67.6,65.9,29.97,ESE,112,4.3,6.3,94,0.09,,---,0.09,VWS V14.01,2013-09-21 06:01:00,
2013-09-21 01:06:00,67.5,65.7,29.97,ESE,112,4.0,5.6,94,0.13,,---,0.13,VWS V14.01,2013-09-21 06:06:00,
2013-09-21 01:11:00,67.3,65.5,29.97,ENE,68,5.8,5.8,94,0.13,,---,0.13,VWS V14.01,2013-09-21 06:11:00,
2013-09-21 01:16:00,67.1,65.0,29.97,ENE,68,4.3,4.3,93,0.08,,---,0.13,VWS V14.01,2013-09-21 06:16:00,
2013-09-21 01:21:00,66.9,64.8,29.97,ESE,112,4.3,4.3,93,0.08,,---,0.13,VWS V14.01,2013-09-21 06:21:00,
2013-09-21 01:26:00,66.9,64.8,29.97,ENE,68,4.3,4.3,93,0.08,,---,0.13,VWS V14.01,2013-09-21 06:26:00,
2013-09-21 01:31:00,66.9,64.8,29.97,ESE,112,3.8,4.7,93,0.08,,---,0.13,VWS V14.01,2013-09-21 06:31:00,
2013-09-21 01:36:00,66.7,64.7,29.97,ESE,112,3.8,3.8,93,0.04,,---,0.13,VWS V14.01,2013-09-21 06:36:00,
2013-09-21 01:41:00,66.7,64.7,29.97,East,90,2.0,2.0,93,0.04,,---,0.13,VWS V14.01,2013-09-21 06:41:00,
2013-09-21 01:46:00,66.7,64.7,29.97,East,90,1.1,2.7,93,0.04,,---,0.13,VWS V14.01,2013-09-21 06:46:00,
2013-09-21 01:51:00,66.6,64.5,29.97,East,90,1.6,3.4,93,0.04,,---,0.13,VWS V14.01,2013-09-21 06:51:00,
2013-09-21 01:56:00,66.6,64.5,29.97,ENE,68,5.6,5.6,93,0.04,,---,0.13,VWS V14.01,2013-09-21 06:56:00,
2013-09-21 02:01:00,66.6,64.5,29.97,ESE,112,3.1,5.8,93,0.04,,---,0.13,VWS V14.01,2013-09-21 07:01:00,
2013-09-21 02:06:00,66.4,64.0,29.97,ESE,112,3.8,4.3,92,0.00,,---,0.13,VWS V14.01,2013-09-21 07:06:00,
2013-09-21 02:11:00,66.4,64.0,29.97,East,90,2.0,3.6,92,0.00,,---,0.13,VWS V14.01,2013-09-21 07:11:00,
2013-09-21 02:16:00,66.4,64.0,29.97,ESE,112,2.5,2.5,92,0.00,,---,0.13,VWS V14.01,2013-09-21 07:16:00,
2013-09-21 02:21:00,66.2,63.8,29.97,NNE,22,2.9,3.6,92,0.00,,---,0.13,VWS V14.01,2013-09-21 07:21:00,
2013-09-21 02:26:00,66.2,63.8,29.97,ESE,112,2.7,2.9,92,0.00,,---,0.13,VWS V14.01,2013-09-21 07:26:00,
2013-09-21 02:31:00,66.0,63.6,29.97,SSE,158,4.0,4.0,92,0.00,,---,0.13,VWS V14.01,2013-09-21 07:31:00,
2013-09-21 02:36:00,66.0,63.6,29.97,ESE,112,3.4,4.9,92,0.00,,---,0.13,VWS V14.01,2013-09-21 07:36:00,
2013-09-21 02:41:00,66.0,63.6,29.97,ENE,68,1.6,4.3,92,0.00,,---,0.13,VWS V14.01,2013-09-21 07:41:00,
2013-09-21 02:46:00,65.8,63.5,29.97,ESE,112,4.9,4.9,92,0.00,,---,0.13,VWS V14.01,2013-09-21 07:46:00,
2013-09-21 02:51:00,65.8,63.1,29.97,East,90,2.7,3.8,91,0.00,,---,0.13,VWS V14.01,2013-09-21 07:51:00,
2013-09-21 02:56:00,65.8,63.1,29.97,East,90,0.0,2.9,91,0.00,,---,0.13,VWS V14.01,2013-09-21 07:56:00,
2013-09-21 03:01:00,65.7,63.0,29.97,ENE,68,0.9,2.7,91,0.00,,---,0.13,VWS V14.01,2013-09-21 08:01:00,
2013-09-21 03:06:00,65.7,63.0,29.97,ENE,68,3.6,6.0,91,0.00,,---,0.13,VWS V14.01,2013-09-21 08:06:00,
2013-09-21 03:11:00,65.5,62.8,29.97,East,90,0.0,2.9,91,0.00,,---,0.13,VWS V14.01,2013-09-21 08:11:00,
2013-09-21 03:16:00,65.5,62.8,29.97,ENE,68,2.5,3.4,91,0.00,,---,0.13,VWS V14.01,2013-09-21 08:16:00,
2013-09-21 03:21:00,65.5,62.8,29.97,ENE,68,5.4,6.5,91,0.00,,---,0.13,VWS V14.01,2013-09-21 08:21:00,
2013-09-21 03:26:00,65.5,62.8,29.97,ESE,112,3.4,3.4,91,0.00,,---,0.13,VWS V14.01,2013-09-21 08:26:00,
2013-09-21 03:31:00,65.3,62.3,29.97,ESE,112,6.0,6.0,90,0.00,,---,0.13,VWS V14.01,2013-09-21 08:31:00,
2013-09-21 03:36:00,65.1,62.1,29.97,ENE,68,2.5,3.4,90,0.00,,---,0.13,VWS V14.01,2013-09-21 08:36:00,
2013-09-21 03:41:00,64.9,61.6,29.97,ESE,112,2.0,3.4,89,0.00,,---,0.13,VWS V14.01,2013-09-21 08:41:00,
2013-09-21 03:46:00,64.8,61.1,29.97,ENE,68,2.0,4.0,88,0.00,,---,0.13,VWS V14.01,2013-09-21 08:46:00,
2013-09-21 03:51:00,64.6,60.3,29.97,ESE,112,4.5,4.5,86,0.00,,---,0.13,VWS V14.01,2013-09-21 08:51:00,
2013-09-21 03:56:00,64.4,60.1,29.97,ESE,112,2.0,4.0,86,0.00,,---,0.13,VWS V14.01,2013-09-21 08:56:00,
2013-09-21 04:01:00,64.2,59.6,29.97,NNE,22,4.9,4.9,85,0.00,,---,0.13,VWS V14.01,2013-09-21 09:01:00,
2013-09-21 04:05:00,64.0,59.1,29.97,ESE,112,2.7,3.1,84,0.00,,---,0.13,VWS V14.01,2013-09-21 09:05:00,
2013-09-21 04:10:00,63.9,58.6,29.97,East,90,0.0,2.9,83,0.00,,---,0.13,VWS V14.01,2013-09-21 09:10:00,
2013-09-21 04:15:00,63.7,58.4,29.97,ENE,68,1.6,2.5,83,0.00,,---,0.13,VWS V14.01,2013-09-21 09:15:00,
2013-09-21 04:20:00,63.7,58.4,29.97,ENE,68,2.0,2.5,83,0.00,,---,0.13,VWS V14.01,2013-09-21 09:20:00,
2013-09-21 04:25:00,63.5,58.2,29.97,ESE,112,3.6,7.2,83,0.00,,---,0.13,VWS V14.01,2013-09-21 09:25:00,
2013-09-21 04:30:00,63.3,57.7,29.97,ESE,112,3.1,4.3,82,0.00,,---,0.13,VWS V14.01,2013-09-21 09:30:00,
2013-09-21 04:35:00,63.1,57.6,29.97,ESE,112,2.5,4.0,82,0.00,,---,0.13,VWS V14.01,2013-09-21 09:35:00,
2013-09-21 04:40:00,63.1,57.6,29.97,ENE,68,2.7,2.9,82,0.00,,---,0.13,VWS V14.01,2013-09-21 09:40:00,
2013-09-21 04:45:00,63.0,57.4,29.97,SE,135,2.7,2.7,82,0.00,,---,0.13,VWS V14.01,2013-09-21 09:45:00,
2013-09-21 04:50:00,62.8,56.9,29.97,ESE,112,2.0,2.7,81,0.00,,---,0.13,VWS V14.01,2013-09-21 09:50:00,
2013-09-21 04:55:00,62.6,57.0,29.97,ENE,68,1.3,2.7,82,0.00,,---,0.13,VWS V14.01,2013-09-21 09:55:00,
2013-09-21 05:00:00,62.6,57.0,29.97,East,90,3.1,3.1,82,0.00,,---,0.13,VWS V14.01,2013-09-21 10:00:00,
2013-09-21 05:05:00,62.2,56.7,29.97,East,90,2.9,5.8,82,0.00,,---,0.13,VWS V14.01,2013-09-21 10:05:00,
2013-09-21 05:10:00,62.2,56.7,29.97,NNE,22,1.6,2.7,82,0.00,,---,0.13,VWS V14.01,2013-09-21 10:10:00,
2013-09-21 05:15:00,62.2,56.7,29.97,ENE,68,2.5,2.5,82,0.00,,---,0.13,VWS V14.01,2013-09-21 10:15:00,
2013-09-21 05:20:00,62.1,56.5,29.97,NNE,22,2.9,4.0,82,0.00,,---,0.13,VWS V14.01,2013-09-21 10:20:00,
2013-09-21 05:25:00,61.9,56.7,30.00,ESE,112,1.6,3.1,83,0.00,,---,0.13,VWS V14.01,2013-09-21 10:25:00,
2013-09-21 05:30:00,61.9,56.3,30.00,ESE,112,0.0,0.9,82,0.00,,---,0.13,VWS V14.01,2013-09-21 10:30:00,
2013-09-21 05:35:00,61.7,56.2,30.00,ENE,68,2.0,2.0,82,0.00,,---,0.13,VWS V14.01,2013-09-21 10:35:00,
2013-09-21 05:40:00,61.7,56.2,29.97,ENE,68,2.7,2.9,82,0.00,,---,0.13,VWS V14.01,2013-09-21 10:40:00,
2013-09-21 05:45:00,61.5,56.0,29.97,ESE,112,0.9,2.9,82,0.00,,---,0.13,VWS V14.01,2013-09-21 10:45:00,
2013-09-21 05:50:00,61.3,55.8,29.97,ENE,68,1.1,3.4,82,0.00,,---,0.13,VWS V14.01,2013-09-21 10:50:00,
2013-09-21 05:55:00,61.2,55.6,30.00,ENE,68,2.0,2.0,82,0.00,,---,0.13,VWS V14.01,2013-09-21 10:55:00,
2013-09-21 06:00:00,61.0,55.5,30.00,ENE,68,0.0,0.0,82,0.00,,---,0.13,VWS V14.01,2013-09-21 11:00:00,
2013-09-21 06:05:00,60.8,55.3,30.00,ENE,68,0.0,0.0,82,0.00,,---,0.13,VWS V14.01,2013-09-21 11:05:00,
2013-09-21 06:10:00,60.6,55.4,30.00,ENE,68,0.0,0.0,83,0.00,,---,0.13,VWS V14.01,2013-09-21 11:10:00,
2013-09-21 06:15:00,60.6,55.4,30.00,ENE,68,0.0,0.0,83,0.00,,---,0.13,VWS V14.01,2013-09-21 11:15:00,
2013-09-21 06:20:00,60.4,55.3,30.00,ENE,68,0.0,0.0,83,0.00,,---,0.13,VWS V14.01,2013-09-21 11:20:00,
2013-09-21 06:25:00,60.3,55.1,30.00,ESE,112,0.0,2.0,83,0.00,,---,0.13,VWS V14.01,2013-09-21 11:25:00,
2013-09-21 06:30:00,60.1,54.9,30.00,ESE,112,0.0,0.0,83,0.00,,---,0.13,VWS V14.01,2013-09-21 11:30:00,
2013-09-21 06:35:00,60.1,54.9,30.00,East,90,0.0,0.0,83,0.00,,---,0.13,VWS V14.01,2013-09-21 11:35:00,
2013-09-21 06:40:00,59.9,55.1,30.00,East,90,0.0,0.0,84,0.00,,---,0.13,VWS V14.01,2013-09-21 11:40:00,
2013-09-21 06:45:00,59.7,54.9,30.00,East,90,0.0,0.0,84,0.00,,---,0.13,VWS V14.01,2013-09-21 11:45:00,
2013-09-21 06:50:00,59.5,54.7,30.00,East,90,0.0,0.0,84,0.00,,---,0.13,VWS V14.01,2013-09-21 11:50:00,
2013-09-21 06:55:00,59.5,54.7,30.00,East,90,0.0,0.0,84,0.00,,---,0.13,VWS V14.01,2013-09-21 11:55:00,
2013-09-21 07:00:00,59.4,54.5,30.00,East,90,0.0,0.0,84,0.00,,---,0.13,VWS V14.01,2013-09-21 12:00:00,
2013-09-21 07:05:00,59.2,54.4,30.00,East,90,0.0,0.0,84,0.00,,---,0.13,VWS V14.01,2013-09-21 12:05:00,
2013-09-21 07:10:00,59.0,54.2,30.00,East,90,0.0,0.0,84,0.00,,---,0.13,VWS V14.01,2013-09-21 12:10:00,
2013-09-21 07:15:00,59.0,54.5,30.00,East,90,0.0,0.0,85,0.00,,---,0.13,VWS V14.01,2013-09-21 12:15:00,
2013-09-21 07:20:00,59.2,55.0,30.00,East,90,0.0,0.0,86,0.00,,---,0.13,VWS V14.01,2013-09-21 12:20:00,
2013-09-21 07:25:00,59.2,55.3,30.00,East,90,0.0,0.0,87,0.00,,---,0.13,VWS V14.01,2013-09-21 12:25:00,
2013-09-21 07:30:00,59.4,55.5,30.00,East,90,0.0,0.0,87,0.00,,---,0.13,VWS V14.01,2013-09-21 12:30:00,
2013-09-21 07:35:00,59.4,55.5,30.00,East,90,0.0,0.0,87,0.00,,---,0.13,VWS V14.01,2013-09-21 12:35:00,
2013-09-21 07:40:00,59.5,55.7,30.03,East,90,0.0,0.0,87,0.00,,---,0.13,VWS V14.01,2013-09-21 12:40:00,
2013-09-21 07:45:00,59.7,55.8,30.03,NNW,338,0.0,0.0,87,0.00,,---,0.13,VWS V14.01,2013-09-21 12:45:00,
2013-09-21 07:50:00,59.9,55.7,30.03,ESE,112,3.8,3.8,86,0.00,,---,0.13,VWS V14.01,2013-09-21 12:50:00,
2013-09-21 07:55:00,60.1,55.9,30.03,East,90,0.9,2.5,86,0.00,,---,0.13,VWS V14.01,2013-09-21 12:55:00,
2013-09-21 08:00:00,60.4,56.2,30.03,ESE,112,1.1,2.9,86,0.00,,---,0.13,VWS V14.01,2013-09-21 13:00:00,
2013-09-21 08:05:00,60.6,56.1,30.03,East,90,1.6,3.4,85,0.00,,---,0.13,VWS V14.01,2013-09-21 13:05:00,
2013-09-21 08:10:00,60.8,56.3,30.03,ESE,112,2.5,3.1,85,0.00,,---,0.13,VWS V14.01,2013-09-21 13:10:00,
2013-09-21 08:15:00,61.2,56.3,30.03,ENE,68,2.5,2.5,84,0.00,,---,0.13,VWS V14.01,2013-09-21 13:15:00,
2013-09-21 08:20:00,61.3,56.5,30.03,ESE,112,2.9,3.8,84,0.00,,---,0.13,VWS V14.01,2013-09-21 13:20:00,
2013-09-21 08:25:00,61.5,56.3,30.03,ESE,112,0.0,1.1,83,0.00,,---,0.13,VWS V14.01,2013-09-21 13:25:00,
2013-09-21 08:30:00,61.9,56.7,30.03,NE,45,3.6,4.0,83,0.00,,---,0.13,VWS V14.01,2013-09-21 13:30:00,
2013-09-21 08:35:00,61.9,56.7,30.03,ESE,112,2.7,2.7,83,0.00,,---,0.13,VWS V14.01,2013-09-21 13:35:00,
2013-09-21 08:40:00,62.1,56.5,30.03,ESE,112,2.0,2.0,82,0.00,,---,0.13,VWS V14.01,2013-09-21 13:40:00,
2013-09-21 08:45:00,62.2,56.3,30.03,East,90,4.9,4.9,81,0.00,,---,0.13,VWS V14.01,2013-09-21 13:45:00,
2013-09-21 08:50:00,62.2,56.0,30.03,ESE,112,3.8,5.6,80,0.00,,---,0.13,VWS V14.01,2013-09-21 13:50:00,
2013-09-21 08:55:00,62.6,56.3,30.03,East,90,3.1,6.5,80,0.00,,---,0.13,VWS V14.01,2013-09-21 13:55:00,
2013-09-21 09:00:00,62.8,56.2,30.03,ESE,112,2.5,2.5,79,0.00,,---,0.13,VWS V14.01,2013-09-21 14:00:00,
2013-09-21 09:05:00,62.8,55.8,30.03,ESE,112,2.5,4.7,78,0.00,,---,0.13,VWS V14.01,2013-09-21 14:05:00,
2013-09-21 09:10:00,63.0,55.7,30.03,ESE,112,1.3,4.9,77,0.00,,---,0.13,VWS V14.01,2013-09-21 14:10:00,
2013-09-21 09:15:00,63.3,55.6,30.03,ESE,112,4.3,4.3,76,0.00,,---,0.13,VWS V14.01,2013-09-21 14:15:00,
2013-09-21 09:20:00,63.5,55.4,30.03,East,90,1.3,5.4,75,0.00,,---,0.13,VWS V14.01,2013-09-21 14:20:00,
2013-09-21 09:25:00,63.7,55.2,30.03,NE,45,3.6,4.0,74,0.00,,---,0.13,VWS V14.01,2013-09-21 14:25:00,
2013-09-21 09:30:00,63.9,54.3,30.03,East,90,3.8,3.8,71,0.00,,---,0.13,VWS V14.01,2013-09-21 14:30:00,
2013-09-21 09:35:00,64.0,53.7,30.03,ESE,112,6.3,6.3,69,0.00,,---,0.13,VWS V14.01,2013-09-21 14:35:00,
2013-09-21 09:40:00,64.4,54.0,30.03,ENE,68,4.9,5.4,69,0.00,,---,0.13,VWS V14.01,2013-09-21 14:40:00,
2013-09-21 09:45:00,64.6,53.8,30.03,East,90,1.6,2.2,68,0.00,,---,0.13,VWS V14.01,2013-09-21 14:45:00,
2013-09-21 09:50:00,64.9,53.7,30.03,East,90,5.8,6.3,67,0.00,,---,0.13,VWS V14.01,2013-09-21 14:50:00,
2013-09-21 09:55:00,65.1,51.8,30.03,ESE,112,3.6,8.5,62,0.00,,---,0.13,VWS V14.01,2013-09-21 14:55:00,
2013-09-21 10:00:00,65.1,52.2,30.03,ESE,112,4.3,5.4,63,0.00,,---,0.13,VWS V14.01,2013-09-21 15:00:00,
2013-09-21 10:05:00,65.7,53.2,30.03,NNE,22,10.1,11.4,64,0.00,,---,0.13,VWS V14.01,2013-09-21 15:05:00,
2013-09-21 10:10:00,65.8,51.6,30.03,ESE,112,4.3,5.8,60,0.00,,---,0.13,VWS V14.01,2013-09-21 15:10:00,
2013-09-21 10:15:00,66.0,49.4,30.03,ENE,68,6.3,6.3,55,0.00,,---,0.13,VWS V14.01,2013-09-21 15:15:00,
2013-09-21 10:20:00,66.4,48.8,30.03,ENE,68,4.9,10.5,53,0.00,,---,0.13,VWS V14.01,2013-09-21 15:20:00,
2013-09-21 10:25:00,66.6,47.9,30.03,South,180,9.6,10.3,51,0.00,,---,0.13,VWS V14.01,2013-09-21 15:25:00,
2013-09-21 10:30:00,66.7,48.1,30.03,ESE,112,6.5,10.1,51,0.00,,---,0.13,VWS V14.01,2013-09-21 15:30:00,
2013-09-21 10:35:00,66.9,47.7,30.03,ENE,68,6.5,7.6,50,0.00,,---,0.13,VWS V14.01,2013-09-21 15:35:00,
2013-09-21 10:40:00,67.3,48.0,30.03,ESE,112,7.4,9.0,50,0.00,,---,0.13,VWS V14.01,2013-09-21 15:40:00,
2013-09-21 10:45:00,67.5,48.7,30.03,SSE,158,3.8,4.9,51,0.00,,---,0.13,VWS V14.01,2013-09-21 15:45:00,
2013-09-21 10:50:00,67.5,47.1,30.03,ESE,112,10.3,10.3,48,0.00,,---,0.13,VWS V14.01,2013-09-21 15:50:00,
2013-09-21 10:55:00,67.6,46.1,30.03,ESE,112,5.8,13.0,46,0.00,,---,0.13,VWS V14.01,2013-09-21 15:55:00,
2013-09-21 11:00:00,67.8,46.9,30.03,ESE,112,5.6,8.7,47,0.00,,---,0.13,VWS V14.01,2013-09-21 16:00:00,
2013-09-21 11:05:00,68.2,48.3,30.03,ENE,68,6.5,7.8,49,0.00,,---,0.13,VWS V14.01,2013-09-21 16:05:00,
2013-09-21 11:10:00,68.5,48.6,30.06,ESE,112,3.4,4.7,49,0.00,,---,0.13,VWS V14.01,2013-09-21 16:10:00,
2013-09-21 11:15:00,68.9,47.9,30.06,ESE,112,5.6,8.1,47,0.00,,---,0.13,VWS V14.01,2013-09-21 16:15:00,
2013-09-21 11:20:00,69.1,48.6,30.06,ENE,68,2.9,6.3,48,0.00,,---,0.13,VWS V14.01,2013-09-21 16:20:00,
2013-09-21 11:25:00,69.3,47.0,30.03,ENE,68,5.4,10.7,45,0.00,,---,0.13,VWS V14.01,2013-09-21 16:25:00,
2013-09-21 11:30:00,69.4,47.8,30.03,NE,45,2.7,7.2,46,0.00,,---,0.13,VWS V14.01,2013-09-21 16:30:00,
2013-09-21 11:35:00,69.6,48.0,30.03,ESE,112,6.0,10.1,46,0.00,,---,0.13,VWS V14.01,2013-09-21 16:35:00,
2013-09-21 11:40:00,69.6,47.4,30.03,NNE,22,3.8,6.0,45,0.00,,---,0.13,VWS V14.01,2013-09-21 16:40:00,
2013-09-21 11:45:00,70.0,47.1,30.03,East,90,4.0,4.3,44,0.00,,---,0.13,VWS V14.01,2013-09-21 16:45:00,
2013-09-21 11:50:00,70.0,47.1,30.03,ESE,112,6.0,7.4,44,0.00,,---,0.13,VWS V14.01,2013-09-21 16:50:00,
2013-09-21 11:55:00,70.2,46.0,30.03,East,90,7.8,8.1,42,0.00,,---,0.13,VWS V14.01,2013-09-21 16:55:00,
2013-09-21 12:00:00,70.3,46.2,30.03,ESE,112,3.8,5.4,42,0.00,,---,0.13,VWS V14.01,2013-09-21 17:00:00,
2013-09-21 12:05:00,70.3,46.8,30.03,NE,45,4.7,8.5,43,0.00,,---,0.13,VWS V14.01,2013-09-21 17:05:00,
2013-09-21 12:10:00,70.5,47.0,30.03,ENE,68,3.8,3.8,43,0.00,,---,0.13,VWS V14.01,2013-09-21 17:10:00,
2013-09-21 12:15:00,70.7,47.7,30.03,ESE,112,9.8,9.8,44,0.00,,---,0.13,VWS V14.01,2013-09-21 17:15:00,
2013-09-21 12:20:00,70.9,47.9,30.03,NNE,22,6.7,6.7,44,0.00,,---,0.13,VWS V14.01,2013-09-21 17:20:00,
2013-09-21 12:25:00,71.1,46.8,30.03,ESE,112,5.4,10.5,42,0.00,,---,0.13,VWS V14.01,2013-09-21 17:25:00,
2013-09-21 12:29:00,71.4,47.8,30.03,ESE,112,4.7,5.4,43,0.00,,---,0.13,VWS V14.01,2013-09-21 17:29:00,
2013-09-21 12:34:00,71.4,47.2,30.03,ENE,68,3.4,7.2,42,0.00,,---,0.13,VWS V14.01,2013-09-21 17:34:00,
2013-09-21 12:39:00,71.4,47.8,30.03,ENE,68,2.9,4.9,43,0.00,,---,0.13,VWS V14.01,2013-09-21 17:39:00,
2013-09-21 12:44:00,71.4,47.2,30.03,ENE,68,4.9,8.1,42,0.00,,---,0.13,VWS V14.01,2013-09-21 17:44:00,
2013-09-21 12:49:00,71.6,46.0,30.03,NE,45,5.6,7.8,40,0.00,,---,0.13,VWS V14.01,2013-09-21 17:49:00,
2013-09-21 12:54:00,71.8,46.2,30.03,NE,45,2.9,4.3,40,0.00,,---,0.13,VWS V14.01,2013-09-21 17:54:00,
2013-09-21 12:59:00,72.0,47.0,30.03,NNE,22,2.9,3.4,41,0.00,,---,0.13,VWS V14.01,2013-09-21 17:59:00,
2013-09-21 13:04:00,72.1,46.5,30.03,ESE,112,4.3,5.6,40,0.00,,---,0.13,VWS V14.01,2013-09-21 18:04:00,
2013-09-21 13:09:00,72.3,48.0,30.03,ESE,112,4.9,4.9,42,0.00,,---,0.13,VWS V14.01,2013-09-21 18:09:00,
2013-09-21 13:14:00,72.5,48.1,30.03,ENE,68,4.9,4.9,42,0.00,,---,0.13,VWS V14.01,2013-09-21 18:14:00,
2013-09-21 13:19:00,72.5,47.5,30.03,NNE,22,3.1,6.0,41,0.00,,---,0.13,VWS V14.01,2013-09-21 18:19:00,
2013-09-21 13:24:00,72.5,47.5,30.03,NNW,338,6.5,6.5,41,0.00,,---,0.13,VWS V14.01,2013-09-21 18:24:00,
2013-09-21 13:29:00,72.5,47.5,30.03,East,90,3.6,3.6,41,0.00,,---,0.13,VWS V14.01,2013-09-21 18:29:00,
2013-09-21 13:34:00,72.7,48.3,30.03,ENE,68,2.0,7.6,42,0.00,,---,0.13,VWS V14.01,2013-09-21 18:34:00,
2013-09-21 13:39:00,72.9,48.5,30.03,ESE,112,3.8,6.5,42,0.00,,---,0.13,VWS V14.01,2013-09-21 18:39:00,
2013-09-21 13:44:00,72.9,48.5,30.03,East,90,2.0,4.3,42,0.00,,---,0.13,VWS V14.01,2013-09-21 18:44:00,
2013-09-21 13:49:00,73.2,49.4,30.03,ESE,112,3.6,3.6,43,0.00,,---,0.13,VWS V14.01,2013-09-21 18:49:00,
2013-09-21 13:54:00,73.4,48.3,30.03,NNE,22,5.4,5.4,41,0.00,,---,0.13,VWS V14.01,2013-09-21 18:54:00,
2013-09-21 13:59:00,73.2,46.1,30.03,ENE,68,5.4,5.4,38,0.00,,---,0.13,VWS V14.01,2013-09-21 18:59:00,
2013-09-21 14:04:00,73.4,48.3,30.03,ESE,112,4.3,4.3,41,0.00,,---,0.13,VWS V14.01,2013-09-21 19:04:00,
2013-09-21 14:09:00,73.4,45.6,30.03,ENE,68,6.0,8.1,37,0.00,,---,0.13,VWS V14.01,2013-09-21 19:09:00,
2013-09-21 14:14:00,73.6,47.1,30.03,ENE,68,4.3,5.6,39,0.00,,---,0.13,VWS V14.01,2013-09-21 19:14:00,
2013-09-21 14:19:00,73.6,48.5,30.03,NE,45,9.4,9.4,41,0.00,,---,0.13,VWS V14.01,2013-09-21 19:19:00,
2013-09-21 14:24:00,73.6,45.7,30.03,NNE,22,3.1,4.0,37,0.00,,---,0.13,VWS V14.01,2013-09-21 19:24:00,
2013-09-21 14:29:00,73.8,47.3,30.03,WNW,292,2.9,8.5,39,0.00,,---,0.13,VWS V14.01,2013-09-21 19:29:00,
2013-09-21 14:34:00,73.8,48.0,30.03,ESE,112,4.9,4.9,40,0.00,,---,0.13,VWS V14.01,2013-09-21 19:34:00,
2013-09-21 14:39:00,74.3,48.4,30.03,ESE,112,4.9,4.9,40,0.00,,---,0.13,VWS V14.01,2013-09-21 19:39:00,
2013-09-21 14:44:00,74.1,45.5,30.03,ESE,112,6.5,8.7,36,0.00,,---,0.13,VWS V14.01,2013-09-21 19:44:00,
2013-09-21 14:49:00,74.1,45.5,30.03,East,90,6.3,8.1,36,0.00,,---,0.13,VWS V14.01,2013-09-21 19:49:00,
2013-09-21 14:54:00,74.1,46.2,30.03,North,0,4.9,5.8,37,0.00,,---,0.13,VWS V14.01,2013-09-21 19:54:00,
2013-09-21 14:59:00,74.1,45.5,30.03,East,90,4.0,4.0,36,0.00,,---,0.13,VWS V14.01,2013-09-21 19:59:00,
2013-09-21 15:04:00,74.1,46.9,30.03,ESE,112,5.8,6.0,38,0.00,,---,0.13,VWS V14.01,2013-09-21 20:04:00,
2013-09-21 15:09:00,74.3,47.1,30.03,North,0,4.3,4.9,38,0.00,,---,0.13,VWS V14.01,2013-09-21 20:09:00,
2013-09-21 15:14:00,74.3,47.1,30.03,ENE,68,2.0,3.4,38,0.00,,---,0.13,VWS V14.01,2013-09-21 20:14:00,
2013-09-21 15:19:00,74.1,46.9,30.03,NW,315,3.6,3.6,38,0.00,,---,0.13,VWS V14.01,2013-09-21 20:19:00,
2013-09-21 15:24:00,74.3,45.7,30.03,NE,45,8.5,8.5,36,0.00,,---,0.13,VWS V14.01,2013-09-21 20:24:00,
2013-09-21 15:29:00,74.1,44.8,30.00,North,0,3.6,4.0,35,0.00,,---,0.13,VWS V14.01,2013-09-21 20:29:00,
2013-09-21 15:34:00,74.3,45.7,30.00,ESE,112,3.1,4.7,36,0.00,,---,0.13,VWS V14.01,2013-09-21 20:34:00,
2013-09-21 15:39:00,74.3,45.7,30.03,SW,225,3.4,3.4,36,0.00,,---,0.13,VWS V14.01,2013-09-21 20:39:00,
2013-09-21 15:44:00,74.1,44.8,30.03,ENE,68,2.9,5.4,35,0.00,,---,0.13,VWS V14.01,2013-09-21 20:44:00,
2013-09-21 15:49:00,74.3,45.7,30.03,East,90,2.2,6.5,36,0.00,,---,0.13,VWS V14.01,2013-09-21 20:49:00,
2013-09-21 15:54:00,74.1,44.8,30.00,SE,135,3.6,4.0,35,0.00,,---,0.13,VWS V14.01,2013-09-21 20:54:00,
2013-09-21 15:59:00,73.8,45.2,30.00,ESE,112,3.8,5.4,36,0.00,,---,0.13,VWS V14.01,2013-09-21 20:59:00,
2013-09-21 16:04:00,73.9,44.6,30.00,NNW,338,3.1,4.0,35,0.00,,---,0.13,VWS V14.01,2013-09-21 21:04:00,
2013-09-21 16:09:00,73.8,44.4,30.00,NNE,22,3.8,3.8,35,0.00,,---,0.13,VWS V14.01,2013-09-21 21:09:00,
2013-09-21 16:14:00,73.9,43.8,30.00,NE,45,6.0,6.0,34,0.00,,---,0.13,VWS V14.01,2013-09-21 21:14:00,
2013-09-21 16:19:00,73.9,43.0,30.00,East,90,6.3,8.7,33,0.00,,---,0.13,VWS V14.01,2013-09-21 21:19:00,
2013-09-21 16:24:00,73.8,42.9,30.03,ESE,112,6.7,7.8,33,0.00,,---,0.13,VWS V14.01,2013-09-21 21:24:00,
2013-09-21 16:29:00,73.8,43.7,30.03,ESE,112,2.5,3.6,34,0.00,,---,0.13,VWS V14.01,2013-09-21 21:29:00,
2013-09-21 16:34:00,73.8,44.4,30.03,ESE,112,2.9,5.8,35,0.00,,---,0.00,VWS V14.01,2013-09-21 21:34:00,
2013-09-21 16:39:00,73.8,44.4,30.00,ESE,112,6.3,7.2,35,0.00,,---,0.13,VWS V14.01,2013-09-21 21:39:00,
2013-09-21 16:44:00,73.8,45.9,30.00,NE,45,5.8,5.8,37,0.00,,---,0.13,VWS V14.01,2013-09-21 21:44:00,
2013-09-21 16:49:00,73.6,45.0,30.00,East,90,4.3,4.3,36,0.00,,---,0.13,VWS V14.01,2013-09-21 21:49:00,
2013-09-21 16:54:00,73.8,44.4,30.00,ESE,112,2.7,3.6,35,0.00,,---,0.13,VWS V14.01,2013-09-21 21:54:00,
2013-09-21 16:59:00,73.4,44.1,30.00,ESE,112,2.9,4.3,35,0.00,,---,0.13,VWS V14.01,2013-09-21 21:59:00,
2013-09-21 17:04:00,73.4,44.1,30.00,ESE,112,4.0,4.0,35,0.00,,---,0.13,VWS V14.01,2013-09-21 22:04:00,
2013-09-21 17:09:00,73.4,44.1,30.00,ESE,112,2.5,6.9,35,0.00,,---,0.13,VWS V14.01,2013-09-21 22:09:00,
2013-09-21 17:14:00,73.2,44.7,30.00,NE,45,4.7,4.7,36,0.00,,---,0.13,VWS V14.01,2013-09-21 22:14:00,
2013-09-21 17:19:00,73.2,44.0,30.00,ESE,112,2.7,4.0,35,0.00,,---,0.13,VWS V14.01,2013-09-21 22:19:00,
2013-09-21 17:24:00,73.2,45.4,30.00,ENE,68,2.9,6.3,37,0.00,,---,0.13,VWS V14.01,2013-09-21 22:24:00,
2013-09-21 17:29:00,72.9,45.1,30.03,ESE,112,3.6,3.6,37,0.00,,---,0.13,VWS V14.01,2013-09-21 22:29:00,
2013-09-21 17:34:00,73.0,44.5,30.03,East,90,2.9,6.5,36,0.00,,---,0.13,VWS V14.01,2013-09-21 22:34:00,
2013-09-21 17:39:00,72.9,44.4,30.03,ESE,112,4.0,4.0,36,0.00,,---,0.13,VWS V14.01,2013-09-21 22:39:00,
2013-09-21 17:44:00,72.7,43.5,30.03,ESE,112,3.1,5.6,35,0.00,,---,0.13,VWS V14.01,2013-09-21 22:44:00,
2013-09-21 17:49:00,72.5,44.1,30.03,ESE,112,2.7,2.7,36,0.00,,---,0.13,VWS V14.01,2013-09-21 22:49:00,
2013-09-21 17:54:00,72.1,43.7,30.03,East,90,3.6,4.3,36,0.00,,---,0.13,VWS V14.01,2013-09-21 22:54:00,
2013-09-21 17:59:00,72.0,43.6,30.03,North,0,0.9,2.9,36,0.00,,---,0.13,VWS V14.01,2013-09-21 22:59:00,
2013-09-21 18:04:00,71.6,43.3,30.03,ENE,68,6.3,6.3,36,0.00,,---,0.13,VWS V14.01,2013-09-21 23:04:00,
2013-09-21 18:09:00,71.2,43.7,30.03,NE,45,2.7,2.7,37,0.00,,---,0.13,VWS V14.01,2013-09-21 23:09:00,
2013-09-21 18:14:00,70.9,44.0,30.03,ESE,112,1.3,2.5,38,0.00,,---,0.13,VWS V14.01,2013-09-21 23:14:00,
2013-09-21 18:19:00,70.5,43.7,30.03,ESE,112,2.7,4.9,38,0.00,,---,0.13,VWS V14.01,2013-09-21 23:19:00,
2013-09-21 18:24:00,70.2,44.1,30.03,ESE,112,3.8,3.8,39,0.00,,---,0.13,VWS V14.01,2013-09-21 23:24:00,
2013-09-21 18:29:00,69.8,43.8,30.03,East,90,2.5,2.9,39,0.00,,---,0.13,VWS V14.01,2013-09-21 23:29:00,
2013-09-21 18:34:00,69.6,44.2,30.03,ESE,112,2.9,2.9,40,0.00,,---,0.13,VWS V14.01,2013-09-21 23:34:00,
2013-09-21 18:39:00,69.3,44.6,30.03,ESE,112,1.6,1.6,41,0.00,,---,0.13,VWS V14.01,2013-09-21 23:39:00,
2013-09-21 18:44:00,68.7,44.7,30.03,ESE,112,0.0,0.0,42,0.00,,---,0.13,VWS V14.01,2013-09-21 23:44:00,
2013-09-21 18:49:00,68.4,45.0,30.03,ESE,112,0.0,0.0,43,0.00,,---,0.13,VWS V14.01,2013-09-21 23:49:00,
2013-09-21 18:54:00,68.0,45.3,30.03,ESE,112,0.0,0.0,44,0.00,,---,0.13,VWS V14.01,2013-09-21 23:54:00,
2013-09-21 18:59:00,67.5,45.4,30.03,ESE,112,0.0,0.0,45,0.00,,---,0.13,VWS V14.01,2013-09-21 23:59:00,
2013-09-21 19:04:00,67.1,46.2,30.03,ESE,112,0.0,0.0,47,0.00,,---,0.13,VWS V14.01,2013-09-22 00:04:00,
2013-09-21 19:09:00,66.9,46.0,30.03,ESE,112,0.0,0.0,47,0.00,,---,0.13,VWS V14.01,2013-09-22 00:09:00,
2013-09-21 19:14:00,66.0,46.3,30.03,ESE,112,0.0,0.0,49,0.00,,---,0.13,VWS V14.01,2013-09-22 00:14:00,
2013-09-21 19:19:00,65.8,46.7,30.03,ESE,112,0.0,0.0,50,0.00,,---,0.13,VWS V14.01,2013-09-22 00:19:00,
2013-09-21 19:24:00,65.5,47.9,30.03,ESE,112,0.0,0.0,53,0.00,,---,0.13,VWS V14.01,2013-09-22 00:24:00,
2013-09-21 19:29:00,65.1,47.1,30.03,ESE,112,0.0,0.0,52,0.00,,---,0.13,VWS V14.01,2013-09-22 00:29:00,
2013-09-21 19:34:00,64.6,46.6,30.03,ESE,112,0.0,0.0,52,0.00,,---,0.13,VWS V14.01,2013-09-22 00:34:00,
2013-09-21 19:39:00,64.4,46.9,30.03,ESE,112,0.0,0.0,53,0.00,,---,0.13,VWS V14.01,2013-09-22 00:39:00,
2013-09-21 19:44:00,64.2,47.7,30.03,ESE,112,0.0,0.0,55,0.00,,---,0.13,VWS V14.01,2013-09-22 00:44:00,
2013-09-21 19:49:00,64.0,48.0,30.03,ESE,112,0.0,0.0,56,0.00,,---,0.13,VWS V14.01,2013-09-22 00:49:00,
2013-09-21 19:54:00,63.7,47.7,30.03,ESE,112,0.0,0.0,56,0.00,,---,0.13,VWS V14.01,2013-09-22 00:54:00,
2013-09-21 19:59:00,63.1,47.7,30.03,ESE,112,0.0,0.0,57,0.00,,---,0.13,VWS V14.01,2013-09-22 00:59:00,
2013-09-21 20:04:00,63.0,48.0,30.03,ESE,112,0.0,0.0,58,0.00,,---,0.13,VWS V14.01,2013-09-22 01:04:00,
2013-09-21 20:09:00,62.8,48.3,30.03,ESE,112,0.0,0.0,59,0.00,,---,0.13,VWS V14.01,2013-09-22 01:09:00,
2013-09-21 20:14:00,62.6,48.5,30.03,ESE,112,0.0,0.0,60,0.00,,---,0.13,VWS V14.01,2013-09-22 01:14:00,
2013-09-21 20:19:00,62.2,48.6,30.03,ESE,112,0.0,0.0,61,0.00,,---,0.13,VWS V14.01,2013-09-22 01:19:00,
2013-09-21 20:24:00,61.9,48.7,30.03,ESE,112,0.0,0.0,62,0.00,,---,0.13,VWS V14.01,2013-09-22 01:24:00,
2013-09-21 20:28:00,61.9,49.2,30.03,ESE,112,0.0,0.0,63,0.00,,---,0.13,VWS V14.01,2013-09-22 01:28:00,
2013-09-21 20:33:00,61.7,49.4,30.03,ESE,112,0.0,0.0,64,0.00,,---,0.13,VWS V14.01,2013-09-22 01:33:00,
2013-09-21 20:38:00,61.3,49.1,30.03,ESE,112,0.0,0.0,64,0.00,,---,0.13,VWS V14.01,2013-09-22 01:38:00,
2013-09-21 20:43:00,61.2,49.3,30.03,ESE,112,0.0,0.0,65,0.00,,---,0.13,VWS V14.01,2013-09-22 01:43:00,
2013-09-21 20:48:00,61.0,49.5,30.03,ESE,112,0.0,0.0,66,0.00,,---,0.13,VWS V14.01,2013-09-22 01:48:00,
2013-09-21 20:53:00,61.0,49.5,30.03,ESE,112,0.0,0.0,66,0.00,,---,0.13,VWS V14.01,2013-09-22 01:53:00,
2013-09-21 20:58:00,60.6,49.6,30.03,ESE,112,0.0,0.0,67,0.00,,---,0.13,VWS V14.01,2013-09-22 01:58:00,
2013-09-21 21:03:00,60.6,50.0,30.03,ESE,112,0.0,0.0,68,0.00,,---,0.13,VWS V14.01,2013-09-22 02:03:00,
2013-09-21 21:08:00,60.6,50.4,30.03,ESE,112,0.0,0.0,69,0.00,,---,0.13,VWS V14.01,2013-09-22 02:08:00,
2013-09-21 21:13:00,60.3,50.1,30.03,ESE,112,0.0,0.0,69,0.00,,---,0.13,VWS V14.01,2013-09-22 02:13:00,
2013-09-21 21:18:00,60.1,49.9,30.03,ESE,112,0.0,0.0,69,0.00,,---,0.13,VWS V14.01,2013-09-22 02:18:00,
2013-09-21 21:23:00,59.7,49.9,30.03,ESE,112,0.0,0.0,70,0.00,,---,0.13,VWS V14.01,2013-09-22 02:23:00,
2013-09-21 21:28:00,59.7,50.3,30.03,ESE,112,0.0,0.0,71,0.00,,---,0.13,VWS V14.01,2013-09-22 02:28:00,
2013-09-21 21:33:00,59.7,50.3,30.03,ESE,112,0.0,0.0,71,0.00,,---,0.13,VWS V14.01,2013-09-22 02:33:00,
2013-09-21 21:38:00,59.5,50.5,30.03,ESE,112,0.0,0.0,72,0.00,,---,0.13,VWS V14.01,2013-09-22 02:38:00,
2013-09-21 21:43:00,59.5,50.5,30.03,ESE,112,0.0,0.0,72,0.00,,---,0.13,VWS V14.01,2013-09-22 02:43:00,
2013-09-21 21:48:00,59.5,50.9,30.03,ESE,112,0.0,0.0,73,0.00,,---,0.13,VWS V14.01,2013-09-22 02:48:00,
2013-09-21 21:53:00,59.4,50.3,30.03,ESE,112,0.0,0.0,72,0.00,,---,0.13,VWS V14.01,2013-09-22 02:53:00,
2013-09-21 21:58:00,59.2,50.5,30.03,ESE,112,0.0,0.0,73,0.00,,---,0.13,VWS V14.01,2013-09-22 02:58:00,
2013-09-21 22:03:00,59.0,50.4,30.03,ESE,112,0.0,0.0,73,0.00,,---,0.13,VWS V14.01,2013-09-22 03:03:00,
2013-09-21 22:08:00,59.2,50.5,30.03,ESE,112,0.0,0.0,73,0.00,,---,0.13,VWS V14.01,2013-09-22 03:08:00,
2013-09-21 22:13:00,59.0,50.7,30.03,ESE,112,0.0,0.0,74,0.00,,---,0.13,VWS V14.01,2013-09-22 03:13:00,
2013-09-21 22:18:00,59.0,50.7,30.03,ESE,112,0.0,0.0,74,0.00,,---,0.13,VWS V14.01,2013-09-22 03:18:00,
2013-09-21 22:23:00,58.8,50.6,30.03,ESE,112,0.0,0.0,74,0.00,,---,0.13,VWS V14.01,2013-09-22 03:23:00,
2013-09-21 22:28:00,58.8,50.6,30.03,ESE,112,0.0,0.0,74,0.00,,---,0.13,VWS V14.01,2013-09-22 03:28:00,
2013-09-21 22:33:00,58.6,50.4,30.03,ESE,112,0.0,0.0,74,0.00,,---,0.13,VWS V14.01,2013-09-22 03:33:00,
2013-09-21 22:38:00,58.6,50.8,30.03,ESE,112,0.0,0.0,75,0.00,,---,0.13,VWS V14.01,2013-09-22 03:38:00,
2013-09-21 22:43:00,58.6,51.1,30.03,ESE,112,0.0,0.0,76,0.00,,---,0.13,VWS V14.01,2013-09-22 03:43:00,
2013-09-21 22:48:00,58.5,50.6,30.03,ESE,112,0.0,0.0,75,0.00,,---,0.13,VWS V14.01,2013-09-22 03:48:00,
2013-09-21 22:53:00,58.5,50.6,30.03,ESE,112,0.0,0.0,75,0.00,,---,0.13,VWS V14.01,2013-09-22 03:53:00,
2013-09-21 22:58:00,58.3,50.8,30.03,ESE,112,0.0,0.0,76,0.00,,---,0.13,VWS V14.01,2013-09-22 03:58:00,
2013-09-21 23:01:00,58.3,50.8,30.03,ESE,112,0.0,0.0,76,0.00,,---,0.13,VWS V14.01,2013-09-22 04:01:00,
2013-09-21 23:06:00,58.3,50.8,30.03,ESE,112,0.0,0.0,76,0.00,,---,0.13,VWS V14.01,2013-09-22 04:06:00,
2013-09-21 23:11:00,58.1,50.6,30.03,ESE,112,0.0,0.0,76,0.00,,---,0.13,VWS V14.01,2013-09-22 04:11:00,
2013-09-21 23:16:00,58.1,50.6,30.03,ESE,112,0.0,0.0,76,0.00,,---,0.13,VWS V14.01,2013-09-22 04:16:00,
2013-09-21 23:21:00,57.9,50.8,30.03,ESE,112,0.0,0.0,77,0.00,,---,0.13,VWS V14.01,2013-09-22 04:21:00,
2013-09-21 23:26:00,57.9,50.8,30.03,ESE,112,0.0,0.0,77,0.00,,---,0.13,VWS V14.01,2013-09-22 04:26:00,
2013-09-21 23:31:00,57.6,50.1,30.03,ESE,112,0.0,0.0,76,0.00,,---,0.13,VWS V14.01,2013-09-22 04:31:00,
2013-09-21 23:36:00,57.6,50.4,30.03,ESE,112,0.0,0.0,77,0.00,,---,0.13,VWS V14.01,2013-09-22 04:36:00,
2013-09-21 23:41:00,57.4,50.2,30.03,ESE,112,0.0,0.0,77,0.00,,---,0.13,VWS V14.01,2013-09-22 04:41:00,
2013-09-21 23:46:00,57.6,50.8,30.03,ESE,112,0.0,0.0,78,0.00,,---,0.13,VWS V14.01,2013-09-22 04:46:00,
2013-09-21 23:51:00,57.6,50.4,30.03,ESE,112,0.0,0.0,77,0.00,,---,0.13,VWS V14.01,2013-09-22 04:51:00,
2013-09-21 23:56:00,57.4,50.2,30.03,ESE,112,0.0,0.0,77,0.00,,---,0.13,VWS V14.01,2013-09-22 04:56:00,